KBIX/BIX METAR and TAF weather

Enter ICAO airport designator
Station Type Date Time Source
KBIX METAR 2020/09/20 11:21 UTC NOAA

KBIX 201121Z AUTO 06012KT 10SM -RA SCT010 OVC017 19/18 A3000 RMK AO2 RAB21 CIG 010V018 SLP162 $


Station Type Date Time Source
KBIX Decoded METAR 2020/09/20 11:21 UTC NOAA

Keesler Air Force Base / Biloxi, MS, United States (KBIX) 30-25N 088-55W
Sep 20, 2020 - 07:21 AM EDT / 2020.09.20 1121 UTC
Wind: from the ENE (060 degrees) at 14 MPH (12 KT):0
Visibility: 10 mile(s):0
Sky conditions: overcast
Weather: light rain
Temperature: 66 F (19 C)
Dew Point: 64 F (18 C)
Relative Humidity: 93%
Pressure (altimeter): 30 in. Hg (1015 hPa)
ob: KBIX 201121Z AUTO 06012KT 10SM -RA SCT010 OVC017 19/18 A3000 RMK AO2 RAB21 CIG 010V018 SLP162
cycle: 11

Station Type Date Time Source
KBIX TAF 2020/09/20 10:18 UTC NOAA

TAF TAF KBIX 201000Z 2010/2116 06012KT 9000 -RA SCT009 OVC015 540103 QNH2997INS
TEMPO 2010/2012 BKN008
BECMG 2011/2012 07015G25KT 8000 -RA BKN008 OVC020 540103 QNH3001INS
BECMG 2014/2015 06015G25KT 8000 -RA BKN010 OVC020 510103 QNH3004INS
BECMG 2022/2023 07012KT 9000 -RA BKN010 510103 QNH3007INS
BECMG 2105/2106 08015KT 9999 NSW BKN015 510103 QNH3008INS TX21/2105Z TN18/2011Z

Example: see airport list